createdAt,value
2019-03-11T00:01:42.447Z,78.00
2019-03-11T00:04:10.440Z,78.30
2019-03-11T00:06:37.963Z,79.10
2019-03-11T00:09:05.532Z,77.20
2019-03-11T00:11:32.537Z,78.30
2019-03-11T00:13:59.455Z,77.90
2019-03-11T00:16:26.353Z,78.50
2019-03-11T00:18:53.150Z,78.80
2019-03-11T00:21:20.088Z,77.60
2019-03-11T00:23:47.200Z,77.30
2019-03-11T00:26:13.997Z,78.40
2019-03-11T00:28:40.906Z,76.10
2019-03-11T00:31:07.711Z,75.50
2019-03-11T00:33:34.637Z,74.90
2019-03-11T00:36:01.631Z,74.10
2019-03-11T00:38:28.616Z,73.90
2019-03-11T00:40:55.532Z,74.30
2019-03-11T00:43:22.579Z,75.20
2019-03-11T00:45:49.505Z,74.40
2019-03-11T00:48:16.296Z,74.40
2019-03-11T00:50:43.217Z,75.20
2019-03-11T00:53:11.085Z,76.10
2019-03-11T00:55:37.981Z,77.20
2019-03-11T00:58:04.888Z,77.70
2019-03-11T01:00:33.188Z,76.90
2019-03-11T01:03:00.100Z,77.70
2019-03-11T01:05:27.206Z,76.90
2019-03-11T01:07:54.205Z,75.50
2019-03-11T01:10:21.417Z,75.00
2019-03-11T01:12:48.317Z,75.80
2019-03-11T01:15:15.346Z,75.30
2019-03-11T01:17:42.244Z,75.40
2019-03-11T01:20:09.253Z,76.30
2019-03-11T01:22:36.250Z,76.90
2019-03-11T01:25:04.995Z,76.50
2019-03-11T01:27:32.377Z,77.50
2019-03-11T01:29:59.392Z,77.30
2019-03-11T01:32:26.402Z,77.50
2019-03-11T01:34:53.224Z,77.50
2019-03-11T01:37:20.115Z,77.80
2019-03-11T01:39:47.117Z,78.10
2019-03-11T01:42:14.110Z,78.70
2019-03-11T01:44:41.030Z,78.90
2019-03-11T01:47:08.038Z,78.20
2019-03-11T01:49:34.859Z,78.80
2019-03-11T01:52:01.772Z,78.80
2019-03-11T01:54:28.669Z,78.40
2019-03-11T01:56:55.577Z,78.90
2019-03-11T01:59:22.477Z,78.60
2019-03-11T02:01:49.485Z,78.60
2019-03-11T02:04:16.320Z,79.10
2019-03-11T02:06:43.229Z,79.80
2019-03-11T02:09:11.569Z,79.90
2019-03-11T02:11:38.592Z,79.90
2019-03-11T02:14:05.486Z,80.50
2019-03-11T02:16:32.494Z,80.60
2019-03-11T02:18:59.291Z,80.50
2019-03-11T02:21:26.218Z,80.50
2019-03-11T02:23:53.124Z,80.80
2019-03-11T02:26:20.028Z,81.10
2019-03-11T02:28:46.924Z,81.40
2019-03-11T02:31:13.813Z,81.60
2019-03-11T02:33:40.595Z,82.20
2019-03-11T02:36:07.502Z,81.90
2019-03-11T02:38:34.408Z,81.90
2019-03-11T02:41:01.408Z,82.00
2019-03-11T02:43:28.285Z,82.30
2019-03-11T02:45:55.098Z,82.50
2019-03-11T02:48:21.913Z,82.20
2019-03-11T02:50:48.687Z,82.30
2019-03-11T02:53:15.486Z,81.70
2019-03-11T02:55:42.281Z,81.90
2019-03-11T02:58:09.090Z,81.80
2019-03-11T03:00:36.084Z,81.50
2019-03-11T03:03:08.207Z,81.80
2019-03-11T03:05:39.860Z,81.50
2019-03-11T03:08:06.950Z,81.10
2019-03-11T03:10:33.853Z,81.40
2019-03-11T03:13:00.847Z,81.60
2019-03-11T03:15:27.741Z,82.90
2019-03-11T03:17:54.639Z,83.60
2019-03-11T03:20:21.528Z,85.30
2019-03-11T03:22:48.639Z,86.70
2019-03-11T03:25:15.643Z,89.10
2019-03-11T03:27:42.690Z,89.90
2019-03-11T03:30:14.498Z,90.50
2019-03-11T03:32:41.655Z,90.70
2019-03-11T03:35:08.924Z,90.70
2019-03-11T03:37:36.017Z,90.90
2019-03-11T03:40:04.222Z,91.10
2019-03-11T03:42:31.159Z,91.20
2019-03-11T03:45:26.779Z,91.40
2019-03-11T03:47:53.873Z,92.10
2019-03-11T03:50:20.782Z,92.50
2019-03-11T03:52:47.897Z,93.10
2019-03-11T03:55:14.931Z,93.50
2019-03-11T03:57:41.962Z,94.00
2019-03-11T04:00:08.957Z,94.30
2019-03-11T04:02:35.958Z,94.60
2019-03-11T04:05:03.164Z,95.20
2019-03-11T04:07:29.970Z,95.30
2019-03-11T04:09:56.958Z,95.80
2019-03-11T04:12:23.783Z,96.20
2019-03-11T04:14:50.983Z,96.50
2019-03-11T04:17:17.974Z,96.80
2019-03-11T04:19:44.985Z,96.80
2019-03-11T04:22:12.072Z,97.40
2019-03-11T04:24:38.975Z,97.60
2019-03-11T04:27:08.488Z,97.80
2019-03-11T04:29:35.388Z,98.10
2019-03-11T04:32:02.388Z,98.20
2019-03-11T04:34:29.199Z,97.50
2019-03-11T04:36:56.119Z,97.70
2019-03-11T04:39:22.940Z,98.00
2019-03-11T04:41:49.944Z,98.20
2019-03-11T04:44:16.830Z,98.30
2019-03-11T04:46:43.737Z,98.30
2019-03-11T04:49:10.637Z,98.10
2019-03-11T04:51:37.641Z,98.20
2019-03-11T04:54:04.450Z,98.00
2019-03-11T04:56:31.260Z,98.30
2019-03-11T04:59:09.133Z,98.50
2019-03-11T05:01:35.920Z,98.20
2019-03-11T05:04:02.918Z,98.30
2019-03-11T05:06:29.825Z,98.30
2019-03-11T05:08:56.729Z,98.30
2019-03-11T05:11:23.506Z,98.10
2019-03-11T05:13:50.425Z,98.20
2019-03-11T05:16:17.224Z,98.00
2019-03-11T05:18:44.036Z,97.70
2019-03-11T05:21:10.823Z,97.30
2019-03-11T05:23:37.733Z,97.30
2019-03-11T05:26:04.647Z,96.80
2019-03-11T05:28:31.562Z,96.90
2019-03-11T05:30:58.465Z,96.60
2019-03-11T05:33:25.367Z,95.20
2019-03-11T05:35:52.287Z,94.20
2019-03-11T05:38:19.185Z,93.10
2019-03-11T05:40:46.191Z,92.60
2019-03-11T05:43:12.995Z,92.90
2019-03-11T05:45:39.793Z,92.40
2019-03-11T05:48:06.585Z,92.80
2019-03-11T05:50:33.390Z,92.60
2019-03-11T05:53:00.326Z,92.60
2019-03-11T05:55:27.402Z,92.80
2019-03-11T05:57:54.188Z,93.70
2019-03-11T06:00:25.013Z,93.20
2019-03-11T06:02:51.999Z,93.40
2019-03-11T06:05:19.016Z,93.60
2019-03-11T06:07:46.015Z,93.70
2019-03-11T06:10:13.161Z,93.60
2019-03-11T06:12:40.162Z,93.50
2019-03-11T06:15:07.331Z,93.90
2019-03-11T06:17:34.271Z,93.30
2019-03-11T06:20:14.737Z,93.20
2019-03-11T06:22:41.529Z,93.90
2019-03-11T06:25:08.571Z,94.00
2019-03-11T06:27:35.562Z,93.50
2019-03-11T06:30:03.181Z,93.80
2019-03-11T06:32:30.073Z,93.90
2019-03-11T06:34:56.976Z,93.90
2019-03-11T06:37:23.894Z,93.80
2019-03-11T06:39:51.590Z,93.30
2019-03-11T06:42:18.387Z,93.20
2019-03-11T06:44:45.198Z,93.30
2019-03-11T06:47:12.085Z,93.40
2019-03-11T06:49:38.987Z,92.70
2019-03-11T06:52:05.983Z,92.70
2019-03-11T06:54:32.780Z,92.50
2019-03-11T06:56:59.578Z,91.90
2019-03-11T06:59:26.478Z,92.30
2019-03-11T07:01:53.391Z,91.80
2019-03-11T07:04:20.183Z,92.20
2019-03-11T07:06:47.001Z,92.00
2019-03-11T07:09:13.821Z,91.60
2019-03-11T07:11:40.781Z,91.10
2019-03-11T07:14:07.573Z,91.20
2019-03-11T07:16:34.577Z,90.60
2019-03-11T07:19:01.369Z,90.20
2019-03-11T07:21:28.254Z,90.00
2019-03-11T07:23:55.155Z,89.20
2019-03-11T07:26:21.973Z,90.00
2019-03-11T07:28:48.765Z,89.50
2019-03-11T07:31:15.761Z,89.60
2019-03-11T07:33:42.554Z,89.60
2019-03-11T07:36:09.627Z,88.40
2019-03-11T07:38:36.593Z,90.00
2019-03-11T07:41:03.602Z,89.90
2019-03-11T07:43:30.399Z,89.80
2019-03-11T07:45:57.300Z,88.60
2019-03-11T07:48:24.184Z,88.40
2019-03-11T07:50:51.093Z,88.40
2019-03-11T07:53:18.080Z,89.50
2019-03-11T07:55:44.886Z,92.20
2019-03-11T07:58:11.667Z,94.00
2019-03-11T08:00:38.666Z,94.50
2019-03-11T08:03:05.558Z,96.40
2019-03-11T08:05:32.557Z,97.40
2019-03-11T08:07:59.447Z,99.80
2019-03-11T08:10:26.362Z,99.90
2019-03-11T08:12:53.149Z,99.90
2019-03-11T08:15:20.155Z,99.90
2019-03-11T08:17:46.961Z,99.90
2019-03-11T08:20:14.094Z,99.90
2019-03-11T08:22:40.890Z,99.90
2019-03-11T08:25:07.901Z,99.90
2019-03-11T08:27:34.805Z,99.90
2019-03-11T08:30:01.632Z,99.90
2019-03-11T08:32:28.529Z,97.30
2019-03-11T08:34:55.411Z,95.60
2019-03-11T08:37:22.195Z,92.50
2019-03-11T08:39:48.986Z,91.60
2019-03-11T08:42:15.777Z,90.60
2019-03-11T08:44:42.679Z,86.90
2019-03-11T08:47:09.483Z,89.10
2019-03-11T08:49:36.262Z,89.80
2019-03-11T08:52:05.224Z,90.60
2019-03-11T08:54:31.958Z,87.50
2019-03-11T08:56:58.869Z,90.30
2019-03-11T08:59:25.778Z,89.80
2019-03-11T09:01:52.689Z,83.80
2019-03-11T09:04:19.693Z,82.30
2019-03-11T09:06:46.573Z,86.20
2019-03-11T09:09:13.460Z,84.20
2019-03-11T09:11:40.346Z,87.90
2019-03-11T09:14:07.271Z,88.40
2019-03-11T09:16:34.253Z,89.30
2019-03-11T09:19:01.041Z,90.00
2019-03-11T09:21:28.047Z,88.90
2019-03-11T09:23:54.853Z,89.70
2019-03-11T09:26:21.845Z,89.80
2019-03-11T09:28:48.737Z,87.70
2019-03-11T09:31:15.634Z,85.60
2019-03-11T09:33:42.610Z,85.10
2019-03-11T09:36:09.411Z,83.80
2019-03-11T09:38:36.190Z,82.20
2019-03-11T09:41:03.186Z,79.80
2019-03-11T09:43:29.970Z,76.90
2019-03-11T09:45:56.862Z,76.90
2019-03-11T09:48:23.669Z,76.20
2019-03-11T09:50:50.467Z,77.10
2019-03-11T09:53:17.354Z,80.30
2019-03-11T09:55:44.267Z,77.30
2019-03-11T09:58:11.173Z,73.40
2019-03-11T10:00:38.164Z,75.40
2019-03-11T10:03:05.138Z,69.80
2019-03-11T10:05:31.926Z,70.50
2019-03-11T10:07:59.049Z,68.80
2019-03-11T10:10:26.109Z,73.00
2019-03-11T10:12:52.905Z,67.60
2019-03-11T10:15:19.899Z,64.90
2019-03-11T10:17:46.889Z,63.40
2019-03-11T10:20:13.927Z,62.70
2019-03-11T10:22:40.974Z,60.50
2019-03-11T10:25:08.186Z,61.50
2019-03-11T10:27:35.118Z,59.10
2019-03-11T10:30:02.377Z,58.60
2019-03-11T10:32:29.173Z,60.50
2019-03-11T10:34:56.053Z,60.70
2019-03-11T10:37:23.048Z,58.30
2019-03-11T10:39:49.929Z,59.60
2019-03-11T10:42:16.818Z,62.50
2019-03-11T10:44:43.631Z,64.50
2019-03-11T10:47:10.713Z,62.60
2019-03-11T10:49:37.633Z,63.20
2019-03-11T10:52:07.188Z,64.60
2019-03-11T10:54:33.375Z,60.50
2019-03-11T10:57:00.300Z,62.70
2019-03-11T10:59:27.190Z,63.00
2019-03-11T11:01:54.109Z,63.20
2019-03-11T11:04:20.986Z,60.30
2019-03-11T11:06:47.782Z,61.50
2019-03-11T11:09:14.676Z,62.30
2019-03-11T11:11:41.593Z,60.90
2019-03-11T11:14:08.481Z,59.80
2019-03-11T11:16:35.372Z,60.40
2019-03-11T11:19:02.464Z,61.40
2019-03-11T11:21:29.263Z,61.80
2019-03-11T11:23:56.155Z,58.60
2019-03-11T11:26:23.048Z,58.90
2019-03-11T11:28:49.933Z,57.40
2019-03-11T11:31:16.937Z,58.30
2019-03-11T11:33:43.806Z,59.40
2019-03-11T11:36:10.602Z,62.10
2019-03-11T11:38:37.388Z,59.90
2019-03-11T11:41:04.387Z,58.40
2019-03-11T11:43:31.359Z,59.20
2019-03-11T11:45:58.261Z,59.60
2019-03-11T11:48:25.163Z,58.40
2019-03-11T11:50:51.938Z,58.50
2019-03-11T11:53:18.729Z,60.30
2019-03-11T11:55:45.626Z,62.20
2019-03-11T11:58:12.520Z,69.80
2019-03-11T12:00:41.356Z,76.80
2019-03-11T12:03:08.257Z,79.50
2019-03-11T12:05:35.263Z,76.80
2019-03-11T12:08:02.200Z,68.10
2019-03-11T12:10:29.343Z,64.00
2019-03-11T12:12:56.429Z,56.30
2019-03-11T12:15:23.405Z,56.60
2019-03-11T12:17:50.414Z,54.50
2019-03-11T12:20:19.130Z,51.30
2019-03-11T12:22:46.116Z,50.50
2019-03-11T12:25:14.554Z,50.00
2019-03-11T12:27:52.730Z,50.90
2019-03-11T12:30:13.709Z,52.00
2019-03-11T12:32:40.545Z,54.30
2019-03-11T12:35:08.177Z,58.80
2019-03-11T12:37:34.981Z,62.80
2019-03-11T12:40:01.776Z,65.40
2019-03-11T12:42:28.690Z,63.60
2019-03-11T12:44:55.498Z,63.30
2019-03-11T12:47:22.267Z,58.80
2019-03-11T12:49:49.069Z,57.30
2019-03-11T12:52:15.953Z,55.00
2019-03-11T12:54:42.869Z,52.40
2019-03-11T12:57:09.637Z,50.90
2019-03-11T12:59:40.510Z,50.80
2019-03-11T13:02:05.573Z,49.90
2019-03-11T13:04:32.470Z,48.30
2019-03-11T13:06:59.371Z,49.10
2019-03-11T13:09:26.284Z,48.30
2019-03-11T13:11:53.104Z,49.30
2019-03-11T13:14:19.920Z,49.50
2019-03-11T13:16:46.694Z,48.50
2019-03-11T13:19:13.817Z,46.80
2019-03-11T13:21:42.263Z,47.80
2019-03-11T13:24:09.270Z,48.90
2019-03-11T13:26:36.085Z,47.90
2019-03-11T13:29:03.106Z,46.40
2019-03-11T13:31:30.090Z,48.00
2019-03-11T13:33:56.888Z,48.90
2019-03-11T13:36:23.966Z,48.90
2019-03-11T13:38:50.883Z,53.30
2019-03-11T13:41:17.900Z,54.90
2019-03-11T13:43:44.880Z,54.40
2019-03-11T13:46:11.770Z,52.60
2019-03-11T13:48:38.750Z,50.70
2019-03-11T13:51:05.757Z,49.20
2019-03-11T13:53:32.630Z,50.60
2019-03-11T13:55:59.419Z,51.60
2019-03-11T13:58:26.213Z,51.40
2019-03-11T14:00:57.003Z,52.40
2019-03-11T14:03:26.678Z,53.20
2019-03-11T14:06:39.543Z,52.80
2019-03-11T14:09:09.361Z,53.80
2019-03-11T14:11:36.226Z,52.80
2019-03-11T14:14:03.232Z,54.60
2019-03-11T14:16:30.553Z,52.20
2019-03-11T14:18:57.429Z,51.00
2019-03-11T14:21:26.046Z,55.20
2019-03-11T14:23:52.999Z,57.10
2019-03-11T14:26:20.470Z,59.90
2019-03-11T14:28:47.354Z,61.10
2019-03-11T14:31:14.284Z,59.80
2019-03-11T14:33:41.099Z,57.20
2019-03-11T14:36:07.903Z,57.60
2019-03-11T14:38:34.892Z,60.50
2019-03-11T14:41:01.792Z,62.40
2019-03-11T14:43:28.589Z,67.10
2019-03-11T14:45:55.604Z,66.50
2019-03-11T14:48:22.388Z,64.80
2019-03-11T14:50:49.289Z,60.00
2019-03-11T14:53:16.265Z,57.50
2019-03-11T14:55:43.177Z,57.10
2019-03-11T14:58:09.979Z,57.40
2019-03-11T15:00:37.072Z,59.10
2019-03-11T15:03:04.057Z,60.20
2019-03-11T15:05:30.954Z,57.80
2019-03-11T15:07:57.835Z,55.30
2019-03-11T15:10:24.845Z,54.10
2019-03-11T15:12:51.814Z,53.00
2019-03-11T15:15:18.717Z,54.50
2019-03-11T15:17:45.695Z,54.20
2019-03-11T15:20:13.438Z,55.50
2019-03-11T15:22:40.427Z,56.40
2019-03-11T15:25:07.527Z,55.60
2019-03-11T15:27:34.522Z,55.00
2019-03-11T15:30:01.643Z,56.10
2019-03-11T15:32:28.548Z,54.20
2019-03-11T15:34:55.434Z,54.00
2019-03-11T15:37:22.643Z,52.20
2019-03-11T15:39:49.810Z,51.80
2019-03-11T15:42:16.814Z,51.00
2019-03-11T15:44:43.595Z,51.20
2019-03-11T15:47:10.577Z,54.10
2019-03-11T15:49:37.365Z,56.30
2019-03-11T15:52:04.274Z,58.70
2019-03-11T15:54:31.056Z,61.20
2019-03-11T15:56:57.847Z,73.90
2019-03-11T15:59:24.645Z,83.20
2019-03-11T16:01:51.717Z,90.10
2019-03-11T16:04:18.701Z,92.30
2019-03-11T16:06:45.588Z,94.10
2019-03-11T16:09:19.125Z,95.70
2019-03-11T16:11:41.425Z,94.30
2019-03-11T16:14:08.397Z,92.20
2019-03-11T16:16:35.291Z,83.20
2019-03-11T16:19:02.259Z,75.60
2019-03-11T16:21:29.178Z,69.40
2019-03-11T16:23:56.060Z,71.60
2019-03-11T16:26:22.969Z,64.50
2019-03-11T16:28:49.860Z,62.00
2019-03-11T16:31:16.683Z,61.20
2019-03-11T16:33:43.536Z,56.40
2019-03-11T16:36:10.555Z,56.40
2019-03-11T16:38:37.543Z,57.10
2019-03-11T16:41:04.453Z,58.10
2019-03-11T16:43:31.445Z,60.00
2019-03-11T16:45:58.440Z,65.70
2019-03-11T16:48:25.331Z,68.20
2019-03-11T16:50:52.360Z,71.50
2019-03-11T16:53:19.351Z,74.90
2019-03-11T16:55:47.340Z,75.70
2019-03-11T16:58:14.273Z,76.90
2019-03-11T17:00:41.960Z,75.60
2019-03-11T17:03:09.011Z,77.90
2019-03-11T17:05:36.041Z,79.30
2019-03-11T17:08:03.080Z,79.30
2019-03-11T17:10:30.401Z,80.30
2019-03-11T17:12:57.307Z,79.00
2019-03-11T17:15:24.176Z,78.80
2019-03-11T17:17:51.086Z,79.80
2019-03-11T17:20:18.379Z,79.80
2019-03-11T17:22:45.412Z,81.50
2019-03-11T17:25:12.641Z,82.20
2019-03-11T17:27:39.671Z,81.50
2019-03-11T17:30:08.764Z,81.40
2019-03-11T17:32:35.666Z,82.10
2019-03-11T17:35:03.187Z,82.40
2019-03-11T17:37:30.100Z,81.80
2019-03-11T17:39:57.086Z,80.90
2019-03-11T17:42:24.087Z,81.00
2019-03-11T17:44:51.199Z,82.00
2019-03-11T17:47:18.195Z,81.00
2019-03-11T17:49:44.986Z,82.20
2019-03-11T17:52:31.533Z,81.80
2019-03-11T17:54:58.330Z,82.40
2019-03-11T17:57:25.221Z,83.70
2019-03-11T17:59:52.061Z,83.40
2019-03-11T18:02:19.159Z,83.10
2019-03-11T18:04:45.946Z,83.60
2019-03-11T18:07:12.858Z,83.80
2019-03-11T18:09:39.747Z,84.10
2019-03-11T18:12:06.643Z,84.40
2019-03-11T18:14:33.661Z,85.10
2019-03-11T18:17:00.441Z,83.70
2019-03-11T18:19:27.341Z,83.90
2019-03-11T18:21:54.335Z,83.50
2019-03-11T18:24:21.241Z,83.20
2019-03-11T18:26:48.252Z,83.00
2019-03-11T18:29:15.176Z,82.40
2019-03-11T18:31:42.142Z,82.60
2019-03-11T18:34:08.978Z,81.80
2019-03-11T18:36:36.057Z,82.50
2019-03-11T18:39:05.104Z,82.30
2019-03-11T18:41:32.137Z,82.00
2019-03-11T18:43:59.221Z,82.40
2019-03-11T18:46:26.246Z,82.50
2019-03-11T18:48:53.136Z,82.40
2019-03-11T18:51:20.028Z,82.10
2019-03-11T18:53:46.824Z,81.90
2019-03-11T18:56:13.625Z,80.50
2019-03-11T18:58:40.518Z,79.20
2019-03-11T19:01:07.525Z,79.70
2019-03-11T19:03:34.476Z,78.30
2019-03-11T19:06:01.363Z,79.00
2019-03-11T19:08:28.366Z,79.30
2019-03-11T19:10:55.371Z,79.80
2019-03-11T19:13:22.426Z,79.20
2019-03-11T19:15:49.492Z,79.10
2019-03-11T19:18:16.451Z,78.80
2019-03-11T19:20:43.566Z,79.00
2019-03-11T19:23:10.521Z,79.00
2019-03-11T19:25:37.593Z,78.60
2019-03-11T19:28:04.639Z,78.10
2019-03-11T19:30:31.667Z,79.00
2019-03-11T19:32:58.571Z,78.70
2019-03-11T19:35:25.430Z,78.10
2019-03-11T19:37:52.441Z,78.90
2019-03-11T19:40:19.575Z,78.50
2019-03-11T19:42:46.613Z,78.80
2019-03-11T19:45:14.404Z,79.30
2019-03-11T19:47:41.342Z,79.00
2019-03-11T19:50:09.360Z,79.30
2019-03-11T19:52:36.179Z,80.40
2019-03-11T19:55:03.515Z,79.80
2019-03-11T19:57:30.515Z,80.50
2019-03-11T19:59:57.500Z,80.70
2019-03-11T20:02:24.594Z,80.90
2019-03-11T20:04:51.682Z,81.20
2019-03-11T20:07:18.626Z,81.90
2019-03-11T20:09:45.854Z,81.40
2019-03-11T20:12:12.946Z,81.40
2019-03-11T20:14:39.929Z,81.70
2019-03-11T20:17:06.938Z,81.70
2019-03-11T20:19:33.902Z,81.90
2019-03-11T20:22:00.799Z,82.10
2019-03-11T20:24:27.656Z,82.00
2019-03-11T20:26:54.621Z,82.70
2019-03-11T20:29:23.369Z,83.20
2019-03-11T20:31:50.318Z,83.60
2019-03-11T20:34:17.336Z,83.20
2019-03-11T20:36:44.397Z,83.40
2019-03-11T20:39:11.608Z,83.80
2019-03-11T20:41:38.613Z,83.30
2019-03-11T20:44:05.688Z,84.00
2019-03-11T20:46:32.649Z,84.00
2019-03-11T20:48:59.489Z,84.20
2019-03-11T20:51:26.362Z,84.40
2019-03-11T20:53:53.396Z,84.90
2019-03-11T20:56:20.449Z,86.00
2019-03-11T20:58:47.422Z,86.40
2019-03-11T21:01:14.286Z,85.20
2019-03-11T21:03:41.231Z,84.70
2019-03-11T21:06:08.238Z,83.80
2019-03-11T21:08:35.134Z,84.30
2019-03-11T21:11:02.112Z,84.90
2019-03-11T21:13:29.054Z,85.00
2019-03-11T21:15:56.045Z,85.20
2019-03-11T21:18:22.972Z,85.00
2019-03-11T21:20:49.920Z,85.20
2019-03-11T21:23:16.901Z,85.40
2019-03-11T21:25:43.885Z,86.40
2019-03-11T21:28:10.996Z,87.30
2019-03-11T21:30:37.931Z,87.60
2019-03-11T21:33:04.994Z,88.50
2019-03-11T21:35:32.091Z,88.60
2019-03-11T21:37:59.079Z,89.00
2019-03-11T21:40:26.244Z,89.20
2019-03-11T21:42:53.198Z,89.00
2019-03-11T21:45:33.048Z,89.50
2019-03-11T21:47:51.017Z,90.00
2019-03-11T21:50:19.177Z,90.00
2019-03-11T21:52:46.347Z,90.30
2019-03-11T21:55:13.393Z,90.40
2019-03-11T21:57:40.349Z,90.50
2019-03-11T22:00:10.197Z,90.50
2019-03-11T22:02:37.254Z,90.70
2019-03-11T22:05:04.373Z,90.60
2019-03-11T22:07:31.265Z,91.00
2019-03-11T22:09:58.091Z,91.00
2019-03-11T22:12:24.988Z,91.00
2019-03-11T22:14:52.018Z,90.70
2019-03-11T22:17:18.918Z,90.70
2019-03-11T22:19:45.818Z,90.80
2019-03-11T22:22:12.636Z,90.70
2019-03-11T22:24:39.645Z,90.60
2019-03-11T22:27:06.655Z,90.80
2019-03-11T22:29:33.458Z,91.10
2019-03-11T22:32:00.444Z,91.20
2019-03-11T22:34:27.353Z,91.50
2019-03-11T22:36:56.065Z,91.60
2019-03-11T22:39:22.942Z,91.80
2019-03-11T22:41:52.569Z,91.90
2019-03-11T22:44:18.692Z,92.00
2019-03-11T22:46:45.516Z,92.00
2019-03-11T22:49:12.305Z,92.20
2019-03-11T22:51:39.230Z,92.30
2019-03-11T22:54:06.024Z,92.40
2019-03-11T22:56:32.852Z,92.40
2019-03-11T22:58:59.764Z,92.50
2019-03-11T23:01:26.870Z,92.60
2019-03-11T23:03:53.770Z,92.70
2019-03-11T23:06:20.677Z,92.80
2019-03-11T23:08:47.651Z,92.70
2019-03-11T23:11:14.460Z,92.70
2019-03-11T23:13:41.258Z,92.50
2019-03-11T23:16:08.281Z,92.10
2019-03-11T23:18:35.170Z,92.20
2019-03-11T23:21:02.070Z,92.30
2019-03-11T23:23:28.859Z,92.40
2019-03-11T23:25:55.874Z,92.20
2019-03-11T23:28:22.902Z,92.10
2019-03-11T23:30:50.018Z,92.10
2019-03-11T23:33:17.025Z,91.60
2019-03-11T23:35:44.026Z,91.40
2019-03-11T23:38:11.134Z,91.80
2019-03-11T23:40:38.143Z,91.90
2019-03-11T23:43:05.162Z,92.40
2019-03-11T23:45:32.161Z,92.60
2019-03-11T23:47:59.075Z,92.80
2019-03-11T23:50:25.874Z,93.00
2019-03-11T23:52:52.664Z,93.10
2019-03-11T23:55:19.661Z,93.20
2019-03-11T23:57:46.469Z,93.20
